Time;durP1;ratioP1;P1;durP2;ratioP2;P2;SDS_P1;SDS_P2;PMS_P1;PMS_P2;Temp;Humidity;BMP_temperature;BMP_pressure;BME280_temperature;BME280_humidity;BME280_pressure;Samples;Min_cycle;Max_cycle;Signal;HPM_P1;HPM_P2
2023/03/01 00:00:34;;;;;;;13.18;8.90;;;1.90;99.90;;;;;;6230056;23;20169;-86
2023/03/01 00:03:20;;;;;;;13.20;8.00;;;1.90;99.90;;;;;;6228288;23;20177;-87
2023/03/01 00:05:49;;;;;;;12.15;7.78;;;1.90;99.90;;;;;;6230054;23;20231;-86
2023/03/01 00:08:17;;;;;;;14.32;8.05;;;1.80;99.90;;;;;;6256745;23;20160;-86
2023/03/01 00:11:06;;;;;;;11.90;8.50;;;1.80;99.90;;;;;;6255308;22;20169;-86
2023/03/01 00:14:12;;;;;;;12.93;8.43;;;1.80;99.90;;;;;;6254639;23;20192;-86
2023/03/01 00:17:01;;;;;;;10.98;8.35;;;1.80;99.90;;;;;;6237678;23;20163;-86
2023/03/01 00:20:13;;;;;;;;;;;;;;;;;;;;;
2023/03/01 00:23:15;;;;;;;11.20;8.30;;;1.80;99.90;;;;;;6255350;23;20224;-86
2023/03/01 00:26:08;;;;;;;13.02;8.50;;;1.70;99.90;;;;;;6242243;23;20181;-86
2023/03/01 00:29:00;;;;;;;15.73;9.43;;;1.70;99.90;;;;;;6218501;23;20156;-86
2023/03/01 00:31:51;;;;;;;11.95;9.23;;;1.70;99.90;;;;;;6228162;23;20149;-86
2023/03/01 00:34:27;;;;;;;13.70;8.88;;;1.70;99.90;;;;;;6228943;23;20173;-86
2023/03/01 00:36:55;;;;;;;12.43;9.35;;;1.70;99.90;;;;;;6255431;23;20144;-86
2023/03/01 00:39:31;;;;;;;12.05;9.13;;;1.60;99.90;;;;;;6228043;23;20180;-86
2023/03/01 00:42:17;;;;;;;15.18;9.20;;;1.60;99.90;;;;;;6254704;23;20216;-87
2023/03/01 00:44:50;;;;;;;12.05;8.45;;;1.60;99.90;;;;;;6254755;23;20644;-86
2023/03/01 00:47:54;;;;;;;14.70;8.45;;;1.60;99.90;;;;;;6222090;23;20632;-86
2023/03/01 00:50:26;;;;;;;15.75;9.40;;;1.60;99.90;;;;;;6210121;23;20211;-85
2023/03/01 00:53:10;;;;;;;13.70;8.93;;;1.60;99.90;;;;;;6225087;23;20541;-87
2023/03/01 00:55:41;;;;;;;14.48;8.55;;;1.60;99.90;;;;;;6225690;23;20236;-88
2023/03/01 00:58:07;;;;;;;11.10;9.50;;;1.60;99.90;;;;;;6225794;23;20172;-86
2023/03/01 01:00:45;;;;;;;12.30;9.50;;;1.60;99.90;;;;;;6227211;23;20166;-86
2023/03/01 01:03:34;;;;;;;14.20;8.65;;;1.60;99.90;;;;;;6227150;23;20212;-86
2023/03/01 01:06:37;;;;;;;;;;;;;;;;;;;;;
2023/03/01 01:12:34;;;;;;;;;;;;;;;;;;;;;
2023/03/01 01:15:13;;;;;;;;;;;;;;;;;;;;;
2023/03/01 01:17:39;;;;;;;9.18;7.65;;;1.40;99.90;;;;;;6224706;23;20160;-85
2023/03/01 01:23:25;;;;;;;11.95;8.55;;;1.30;99.90;;;;;;6207812;23;20173;-86
2023/03/01 01:29:24;;;;;;;12.85;8.80;;;1.30;99.90;;;;;;6208815;23;20263;-86
2023/03/01 01:32:30;;;;;;;12.32;8.85;;;1.30;99.90;;;;;;6222772;23;20212;-86
2023/03/01 01:35:39;;;;;;;10.60;9.43;;;1.20;99.90;;;;;;6224175;23;20628;-85
2023/03/01 01:38:45;;;;;;;14.60;9.65;;;1.20;99.90;;;;;;6201426;23;20158;-85
2023/03/01 01:41:14;;;;;;;16.13;9.75;;;1.20;99.90;;;;;;6224142;23;20150;-86
2023/03/01 01:43:50;;;;;;;15.07;9.07;;;1.10;99.90;;;;;;6223070;23;20166;-86
2023/03/01 01:47:28;;;;;;;13.45;8.90;;;1.10;99.90;;;;;;6221954;23;20179;-86
2023/03/01 01:50:04;;;;;;;12.55;8.90;;;1.10;99.90;;;;;;6101986;23;20192;-85
2023/03/01 01:52:47;;;;;;;;;;;;;;;;;;;;;
2023/03/01 01:55:58;;;;;;;13.32;8.90;;;1.00;99.90;;;;;;6237742;23;20184;-86
2023/03/01 01:58:29;;;;;;;12.85;8.50;;;1.00;99.90;;;;;;6248697;23;20471;-86
2023/03/01 02:01:01;;;;;;;13.63;10.02;;;0.90;99.90;;;;;;6256001;22;20165;-86
2023/03/01 02:03:37;;;;;;;10.65;9.27;;;0.90;99.90;;;;;;6229814;23;20157;-86
2023/03/01 02:06:18;;;;;;;12.68;9.20;;;0.90;99.90;;;;;;6256180;23;20133;-86
2023/03/01 02:08:49;;;;;;;10.75;8.75;;;0.90;99.90;;;;;;6256563;22;20137;-86
2023/03/01 02:11:37;;;;;;;14.00;9.40;;;0.90;99.90;;;;;;6256238;23;20187;-86
2023/03/01 02:14:26;;;;;;;16.25;8.98;;;0.80;99.90;;;;;;6227951;23;20177;-86
2023/03/01 02:20:36;;;;;;;14.75;9.90;;;0.80;99.90;;;;;;6233995;22;20183;-86
2023/03/01 02:23:33;;;;;;;11.40;9.57;;;0.80;99.90;;;;;;6256655;23;20140;-86
2023/03/01 02:26:42;;;;;;;;;;;;;;;;;;;;;
2023/03/01 02:29:16;;;;;;;11.98;9.13;;;0.80;99.90;;;;;;6256455;22;20199;-86
2023/03/01 02:32:05;;;;;;;14.88;9.68;;;0.80;99.90;;;;;;6229214;23;20235;-86
2023/03/01 02:34:59;;;;;;;11.18;9.15;;;0.70;99.90;;;;;;6255623;23;20347;-86
2023/03/01 02:37:53;;;;;;;17.35;10.02;;;0.70;99.90;;;;;;6227745;23;20153;-88
2023/03/01 02:40:21;;;;;;;13.20;9.60;;;0.70;99.90;;;;;;6230707;23;20184;-86
2023/03/01 02:43:09;;;;;;;13.18;10.50;;;0.70;99.90;;;;;;6230248;23;20526;-86
2023/03/01 02:45:58;;;;;;;17.52;9.30;;;0.60;99.90;;;;;;6257754;23;20666;-87
2023/03/01 02:49:00;;;;;;;15.25;9.65;;;0.60;99.90;;;;;;6227861;23;20168;-87
2023/03/01 02:51:34;;;;;;;13.95;10.05;;;0.60;99.90;;;;;;6230045;23;20485;-86
2023/03/01 02:54:42;;;;;;;14.73;9.00;;;0.50;99.90;;;;;;6228608;23;20173;-86
2023/03/01 02:57:31;;;;;;;13.90;9.98;;;0.50;99.90;;;;;;6180363;23;20604;-86
2023/03/01 03:00:27;;;;;;;14.50;10.25;;;0.50;99.90;;;;;;6229694;23;20196;-88
2023/03/01 03:03:13;;;;;;;;;;;;;;;;;;;;;
2023/03/01 03:05:41;;;;;;;13.93;9.40;;;0.50;99.90;;;;;;6255852;23;20164;-86
2023/03/01 03:08:23;;;;;;;13.35;10.02;;;0.50;99.90;;;;;;6228893;23;20153;-86
2023/03/01 03:10:54;;;;;;;13.30;10.07;;;0.40;99.90;;;;;;6253274;22;20161;-86
2023/03/01 03:13:29;;;;;;;12.70;10.02;;;0.40;99.90;;;;;;6256948;23;20157;-86
2023/03/01 03:16:22;;;;;;;13.35;9.85;;;0.40;99.90;;;;;;6230353;23;20152;-86
2023/03/01 03:19:09;;;;;;;14.57;9.85;;;0.40;99.90;;;;;;6203905;22;20153;-86
2023/03/01 03:21:40;;;;;;;17.90;9.52;;;0.30;99.90;;;;;;6229633;23;20146;-86
2023/03/01 03:24:37;;;;;;;12.93;9.93;;;0.30;99.90;;;;;;6256337;23;20137;-85
2023/03/01 03:27:09;;;;;;;12.30;9.30;;;0.20;99.90;;;;;;6255416;23;20175;-85
2023/03/01 03:30:31;;;;;;;13.52;10.30;;;0.20;99.90;;;;;;6228813;23;20183;-86
2023/03/01 03:33:02;;;;;;;;;;;;;;;;;;;;;
2023/03/01 03:35:48;;;;;;;12.40;9.75;;;0.20;99.90;;;;;;6251893;23;20161;-86
2023/03/01 03:38:44;;;;;;;12.95;10.73;;;0.20;99.90;;;;;;6255808;23;20164;-85
2023/03/01 03:44:42;;;;;;;;;;;;;;;;;;;;;
2023/03/01 03:47:46;;;;;;;14.75;9.73;;;0.10;99.90;;;;;;6257235;23;20191;-86
2023/03/01 03:50:34;;;;;;;14.00;9.00;;;0.10;99.90;;;;;;6230153;22;20181;-86
2023/03/01 03:53:24;;;;;;;14.90;10.68;;;0.10;99.90;;;;;;6233997;23;20298;-85
2023/03/01 03:56:21;;;;;;;14.23;10.95;;;0.00;99.90;;;;;;6255340;23;20212;-86
2023/03/01 03:59:40;;;;;;;;;;;;;;;;;;;;;
2023/03/01 04:02:21;;;;;;;13.38;9.55;;;0.00;99.90;;;;;;6256147;23;20157;-86
2023/03/01 04:05:09;;;;;;;;;;;;;;;;;;;;;
2023/03/01 04:08:06;;;;;;;14.18;10.13;;;-0.10;99.90;;;;;;6256447;23;20157;-85
2023/03/01 04:10:47;;;;;;;;;;;;;;;;;;;;;
2023/03/01 04:13:42;;;;;;;14.30;10.32;;;-0.10;99.90;;;;;;6255529;23;20184;-85
2023/03/01 04:16:35;;;;;;;14.82;10.48;;;-0.20;99.90;;;;;;6219143;23;20250;-86
2023/03/01 04:19:06;;;;;;;13.73;10.93;;;-0.20;99.90;;;;;;6255031;22;20688;-85
2023/03/01 04:21:44;;;;;;;;;;;;;;;;;;;;;
2023/03/01 04:24:30;;;;;;;18.80;10.82;;;-0.20;99.90;;;;;;6256463;23;20152;-85
2023/03/01 04:30:00;;;;;;;15.93;11.07;;;-0.20;99.90;;;;;;6216657;22;20316;-86
2023/03/01 04:32:53;;;;;;;13.60;10.98;;;-0.20;99.90;;;;;;6318731;22;20159;-86
2023/03/01 04:35:40;;;;;;;12.20;10.05;;;-0.30;99.90;;;;;;6316696;22;20626;-86
2023/03/01 04:38:28;;;;;;;16.10;10.15;;;-0.30;99.90;;;;;;6318085;22;20125;-86
2023/03/01 04:41:50;;;;;;;;;;;;;;;;;;;;;
2023/03/01 04:44:19;;;;;;;20.60;11.10;;;-0.40;99.90;;;;;;6318467;22;20175;-87
2023/03/01 04:46:59;;;;;;;;;;;;;;;;;;;;;
2023/03/01 04:50:21;;;;;;;;;;;;;;;;;;;;;
2023/03/01 04:52:58;;;;;;;14.50;10.02;;;-0.40;99.90;;;;;;6317685;22;20160;-86
2023/03/01 04:55:46;;;;;;;;;;;;;;;;;;;;;
2023/03/01 04:58:36;;;;;;;18.00;12.23;;;-0.60;99.90;;;;;;6318957;22;20182;-87
2023/03/01 05:01:27;;;;;;;;;;;;;;;;;;;;;
2023/03/01 05:04:02;;;;;;;14.93;12.30;;;-0.70;99.90;;;;;;6318273;22;20156;-86
2023/03/01 05:06:28;;;;;;;16.40;11.65;;;-0.70;1.00;;;;;;6316503;22;20455;-86
2023/03/01 05:09:06;;;;;;;;;;;;;;;;;;;;;
2023/03/01 05:11:35;;;;;;;19.40;11.75;;;-0.70;1.00;;;;;;6317322;22;20164;-86
2023/03/01 05:14:02;;;;;;;24.63;12.02;;;-0.70;1.00;;;;;;6317903;22;20168;-85
2023/03/01 05:16:36;;;;;;;17.67;11.55;;;-0.70;1.00;;;;;;6318051;22;20143;-86
2023/03/01 05:19:22;;;;;;;;;;;;;;;;;;;;;
2023/03/01 05:22:04;;;;;;;16.77;11.77;;;-0.70;1.00;;;;;;6316497;22;20163;-87
2023/03/01 05:24:47;;;;;;;18.25;12.52;;;-0.70;1.00;;;;;;6313651;22;20201;-87
2023/03/01 05:27:34;;;;;;;17.45;11.25;;;-0.70;1.00;;;;;;6315661;22;20148;-86
2023/03/01 05:30:13;;;;;;;14.48;11.10;;;-0.70;1.00;;;;;;6315063;22;20191;-86
2023/03/01 05:33:16;;;;;;;16.70;11.60;;;-0.70;1.00;;;;;;6316720;22;20601;-86
2023/03/01 05:36:03;;;;;;;17.60;11.45;;;-0.70;1.00;;;;;;6310116;22;20219;-87
2023/03/01 05:38:31;;;;;;;19.20;11.80;;;-0.80;1.00;;;;;;6315571;22;20166;-86
2023/03/01 05:41:05;;;;;;;14.80;9.80;;;-0.80;1.00;;;;;;6315869;22;20221;-86
2023/03/01 05:43:35;;;;;;;17.83;12.25;;;-0.80;1.00;;;;;;6317063;22;20159;-86
2023/03/01 05:46:10;;;;;;;17.98;11.65;;;-0.70;1.00;;;;;;6316155;22;20624;-86
2023/03/01 05:49:06;;;;;;;14.70;11.70;;;-0.70;1.00;;;;;;6316084;22;20147;-86
2023/03/01 05:51:34;;;;;;;19.40;12.00;;;-0.70;1.00;;;;;;6317683;22;20206;-86
2023/03/01 05:54:38;;;;;;;17.13;11.13;;;-0.80;1.00;;;;;;6316134;22;20164;-86
2023/03/01 05:57:03;;;;;;;18.42;11.80;;;-0.80;1.00;;;;;;6317096;22;20128;-85
2023/03/01 05:59:46;;;;;;;17.90;11.37;;;-0.90;1.00;;;;;;6316219;22;20202;-86
2023/03/01 06:02:23;;;;;;;18.58;12.48;;;-0.90;1.00;;;;;;6318362;22;20207;-86
2023/03/01 06:04:51;;;;;;;21.10;12.55;;;-0.90;1.00;;;;;;6315389;22;20156;-86
2023/03/01 06:07:39;;;;;;;17.40;12.60;;;-1.00;1.00;;;;;;6314596;22;20172;-86
2023/03/01 06:10:13;;;;;;;16.77;12.30;;;-1.00;1.00;;;;;;6314773;22;20171;-86
2023/03/01 06:16:06;;;;;;;14.68;11.20;;;-1.00;1.00;;;;;;6298963;22;20218;-86
2023/03/01 06:18:41;;;;;;;14.90;11.50;;;-0.90;1.00;;;;;;6317193;22;20239;-86
2023/03/01 06:21:37;;;;;;;14.77;11.05;;;-0.90;1.00;;;;;;6317236;22;20785;-87
2023/03/01 06:24:10;;;;;;;15.10;10.90;;;-0.90;1.00;;;;;;6316768;22;20152;-86
2023/03/01 06:26:39;;;;;;;18.08;11.75;;;-0.90;1.00;;;;;;6316038;22;20144;-86
2023/03/01 06:29:15;;;;;;;17.88;11.95;;;-0.80;1.00;;;;;;6317618;22;20163;-86
2023/03/01 06:31:45;;;;;;;15.35;11.45;;;-0.80;1.00;;;;;;6317519;22;20159;-86
2023/03/01 06:34:14;;;;;;;17.48;12.35;;;-0.70;1.00;;;;;;6314951;22;20187;-87
2023/03/01 06:36:40;;;;;;;16.30;11.27;;;-0.60;1.00;;;;;;6317059;22;20139;-86
2023/03/01 06:39:18;;;;;;;15.82;11.50;;;-0.60;1.00;;;;;;6316000;22;20243;-86
2023/03/01 06:41:52;;;;;;;16.25;10.90;;;-0.50;1.00;;;;;;6318141;22;20239;-86
2023/03/01 06:44:18;;;;;;;17.92;11.88;;;-0.40;1.00;;;;;;6318946;22;20131;-86
2023/03/01 06:46:48;;;;;;;18.40;12.30;;;-0.40;1.00;;;;;;6319144;22;20162;-86
2023/03/01 06:49:21;;;;;;;17.60;11.43;;;-0.30;1.00;;;;;;6318064;22;20630;-86
2023/03/01 06:51:53;;;;;;;17.83;11.65;;;-0.20;1.00;;;;;;6319432;22;20152;-86
2023/03/01 06:54:48;;;;;;;19.20;12.75;;;-0.10;1.00;;;;;;6320333;22;20656;-87
2023/03/01 06:57:13;;;;;;;21.33;12.65;;;0.10;1.00;;;;;;6319994;22;20164;-86
2023/03/01 06:59:44;;;;;;;17.50;11.33;;;0.20;1.00;;;;;;6319073;22;20706;-85
2023/03/01 07:02:24;;;;;;;19.63;11.02;;;0.40;1.00;;;;;;6320176;22;20147;-86
2023/03/01 07:05:15;;;;;;;;;;;;;;;;;;;;;
2023/03/01 07:08:13;;;;;;;;;;;;;;;;;;;;;
2023/03/01 07:10:53;;;;;;;18.83;14.07;;;6.50;99.90;;;;;;6305450;22;20229;-87
2023/03/01 07:13:23;;;;;;;11.97;10.73;;;9.50;99.90;;;;;;6315263;22;20433;-87
2023/03/01 07:15:51;;;;;;;15.27;12.60;;;12.10;99.90;;;;;;6316006;22;20386;-87
2023/03/01 07:18:21;;;;;;;15.20;12.30;;;14.00;99.90;;;;;;6312715;22;20378;-85
2023/03/01 07:21:13;;;;;;;;;;;;;;;;;;;;;
2023/03/01 07:23:46;;;;;;;18.17;16.30;;;17.20;99.90;;;;;;6310669;22;20448;-85
2023/03/01 07:26:22;;;;;;;16.87;14.70;;;18.60;99.90;;;;;;6308599;22;20366;-85
2023/03/01 07:28:54;;;;;;;12.80;11.47;;;19.80;99.90;;;;;;6307580;22;20356;-85
2023/03/01 07:31:20;;;;;;;19.13;16.00;;;20.80;99.90;;;;;;6307958;22;20396;-86
2023/03/01 07:34:01;;;;;;;15.53;13.87;;;21.70;99.90;;;;;;6307162;22;20383;-86
2023/03/01 07:36:36;;;;;;;15.37;13.03;;;22.50;99.90;;;;;;6308314;22;20209;-86
2023/03/01 07:39:22;;;;;;;14.17;12.77;;;23.30;99.90;;;;;;6306514;22;20392;-86
2023/03/01 07:41:51;;;;;;;14.27;12.67;;;24.00;99.90;;;;;;6306710;22;20438;-87
2023/03/01 07:44:37;;;;;;;14.07;12.67;;;24.80;99.90;;;;;;6305904;22;20398;-85
2023/03/01 07:47:19;;;;;;;;;;;;;;;;;;;;;
2023/03/01 07:50:02;;;;;;;15.07;13.47;;;26.20;99.90;;;;;;6305957;22;20469;-86
2023/03/01 07:52:56;;;;;;;14.50;13.10;;;27.00;99.90;;;;;;6304500;22;20378;-87
2023/03/01 07:55:24;;;;;;;13.47;11.90;;;27.60;99.90;;;;;;6306424;22;21096;-86
2023/03/01 07:57:54;;;;;;;13.90;12.50;;;28.20;99.90;;;;;;6304934;22;20372;-87
2023/03/01 08:00:25;;;;;;;13.80;11.40;;;28.60;99.90;;;;;;6303347;22;20410;-87
2023/03/01 08:03:17;;;;;;;13.67;12.20;;;28.70;99.90;;;;;;6303623;22;20389;-87
2023/03/01 08:06:14;;;;;;;;;;;;;;;;;;;;;
2023/03/01 08:08:43;;;;;;;13.07;11.97;;;29.20;99.90;;;;;;6305474;22;20425;-86
2023/03/01 08:11:38;;;;;;;;;;;;;;;;;;;;;
2023/03/01 08:14:57;;;;;;;12.33;11.23;;;29.80;99.90;;;;;;6305437;22;20516;-87
2023/03/01 08:20:18;;;;;;;13.83;12.13;;;30.30;99.90;;;;;;6288656;22;20402;-87
2023/03/01 08:22:46;;;;;;;12.43;11.23;;;30.50;99.90;;;;;;6302816;22;20377;-87
2023/03/01 08:25:19;;;;;;;13.10;11.83;;;30.80;99.90;;;;;;6303719;22;20389;-87
2023/03/01 08:27:47;;;;;;;14.30;11.77;;;31.20;99.90;;;;;;6302298;22;20407;-88
2023/03/01 08:30:23;;;;;;;;;;;;;;;;;;;;;
2023/03/01 08:33:15;;;;;;;12.53;10.67;;;31.40;99.90;;;;;;6304995;22;20769;-86
2023/03/01 08:38:29;;;;;;;14.87;11.97;;;32.10;99.90;;;;;;6303221;22;20385;-86
2023/03/01 08:41:06;;;;;;;12.80;11.70;;;31.80;99.90;;;;;;6303596;22;20745;-87
2023/03/01 08:44:00;;;;;;;12.73;11.63;;;31.50;99.90;;;;;;6304830;22;20196;-88
2023/03/01 08:46:30;;;;;;;13.20;11.93;;;31.10;99.90;;;;;;6285699;22;20974;-88
2023/03/01 08:49:32;;;;;;;;;;;;;;;;;;;;;
2023/03/01 08:52:38;;;;;;;16.87;13.07;;;30.50;99.90;;;;;;6304686;22;21022;-87
2023/03/01 08:55:27;;;;;;;13.70;12.40;;;30.30;99.90;;;;;;6285746;22;20454;-86
2023/03/01 08:57:57;;;;;;;13.70;12.40;;;30.40;99.90;;;;;;6305686;22;20358;-87
2023/03/01 09:00:25;;;;;;;13.50;12.10;;;29.90;99.90;;;;;;6303375;22;20401;-87
2023/03/01 09:02:51;;;;;;;13.70;11.63;;;29.70;99.90;;;;;;6305298;22;20461;-87
2023/03/01 09:05:46;;;;;;;13.67;12.33;;;29.40;99.90;;;;;;6302569;22;20876;-86
2023/03/01 09:08:14;;;;;;;13.70;12.50;;;29.10;98.80;;;;;;6303926;22;20140;-86
2023/03/01 09:10:51;;;;;;;15.40;11.20;;;28.80;98.20;;;;;;6302993;22;20935;-87
2023/03/01 09:14:06;;;;;;;17.53;12.10;;;29.00;98.10;;;;;;6309357;22;20464;-87
2023/03/01 09:16:47;;;;;;;12.27;11.07;;;29.00;97.50;;;;;;6305666;22;20354;-87
2023/03/01 09:22:46;;;;;;;12.87;11.63;;;29.00;96.40;;;;;;6286638;22;20468;-87
2023/03/01 09:25:32;;;;;;;13.30;12.00;;;29.10;95.90;;;;;;6304120;22;20382;-87
2023/03/01 09:28:45;;;;;;;;;;;;;;;;;;;;;
2023/03/01 09:31:14;;;;;;;13.57;11.63;;;29.10;95.00;;;;;;6306078;22;20469;-86
2023/03/01 09:34:22;;;;;;;13.80;12.40;;;28.20;92.10;;;;;;6304301;22;20452;-85
2023/03/01 09:39:45;;;;;;;14.23;12.73;;;26.90;85.00;;;;;;6293399;22;20394;-87
2023/03/01 09:45:18;;;;;;;12.93;11.73;;;26.30;81.90;;;;;;6293916;22;20457;-86
2023/03/01 09:47:44;;;;;;;14.93;13.43;;;26.40;82.60;;;;;;6303378;22;20382;-86
2023/03/01 09:50:36;;;;;;;;;;;;;;;;;;;;;
2023/03/01 09:53:31;;;;;;;19.07;15.10;;;25.60;78.20;;;;;;6300930;22;20231;-87
2023/03/01 09:56:23;;;;;;;13.97;12.57;;;25.00;74.30;;;;;;6304557;22;20378;-87
2023/03/01 09:59:19;;;;;;;16.30;13.00;;;24.70;72.00;;;;;;6305137;22;20357;-87
2023/03/01 10:02:19;;;;;;;13.63;12.23;;;24.50;71.30;;;;;;6290952;22;20876;-88
2023/03/01 10:05:05;;;;;;;14.47;12.10;;;24.90;73.00;;;;;;6284896;22;20394;-88
2023/03/01 10:08:09;;;;;;;17.90;13.30;;;25.40;75.00;;;;;;6306104;22;20772;-88
2023/03/01 10:11:15;;;;;;;15.43;13.30;;;25.80;76.90;;;;;;6304753;22;20413;-87
2023/03/01 10:14:31;;;;;;;;;;;;;;;;;;;;;
2023/03/01 10:17:26;;;;;;;14.10;12.80;;;25.10;72.30;;;;;;6308165;22;20477;-87
2023/03/01 10:20:37;;;;;;;14.50;13.00;;;25.20;73.50;;;;;;6289639;22;20405;-87
2023/03/01 10:23:30;;;;;;;14.43;12.93;;;25.30;73.10;;;;;;6300418;22;20429;-87
2023/03/01 10:26:11;;;;;;;;;;;;;;;;;;;;;
2023/03/01 10:28:42;;;;;;;15.73;13.37;;;25.40;73.90;;;;;;6307977;22;20425;-86
2023/03/01 10:31:15;;;;;;;14.57;12.70;;;25.60;75.00;;;;;;6306254;22;20397;-86
2023/03/01 10:33:41;;;;;;;13.77;12.37;;;25.70;76.30;;;;;;6308108;22;20752;-86
2023/03/01 10:36:09;;;;;;;14.27;12.87;;;25.40;73.60;;;;;;6308198;22;20387;-88
2023/03/01 10:39:25;;;;;;;19.63;13.43;;;25.40;73.00;;;;;;6308020;22;20378;-87
2023/03/01 10:42:03;;;;;;;14.10;12.77;;;25.40;72.80;;;;;;6156266;23;20386;-86
2023/03/01 10:45:24;;;;;;;;;;;;;;;;;;;;;
2023/03/01 10:48:14;;;;;;;15.17;13.57;;;25.30;72.00;;;;;;6304600;22;20473;-87
2023/03/01 10:50:48;;;;;;;15.27;13.60;;;25.40;73.50;;;;;;6306324;22;20748;-86
2023/03/01 10:53:29;;;;;;;16.67;13.03;;;25.70;74.70;;;;;;6306671;22;20414;-87
2023/03/01 10:56:04;;;;;;;14.27;12.90;;;26.00;76.00;;;;;;6306812;22;20412;-86
2023/03/01 10:58:31;;;;;;;13.70;12.03;;;26.00;75.10;;;;;;6302646;22;20373;-85
2023/03/01 11:01:02;;;;;;;15.17;11.57;;;26.10;75.50;;;;;;6306006;22;20398;-87
2023/03/01 11:03:47;;;;;;;;;;;;;;;;;;;;;
2023/03/01 11:09:27;;;;;;;13.23;11.93;;;25.10;68.80;;;;;;6283775;22;20452;-87
2023/03/01 11:12:07;;;;;;;12.53;11.07;;;24.40;63.20;;;;;;6304825;22;20399;-86
2023/03/01 11:14:46;;;;;;;14.90;11.60;;;24.30;61.70;;;;;;6303937;22;20483;-88
2023/03/01 11:17:38;;;;;;;12.70;10.97;;;24.50;62.50;;;;;;6277651;22;20363;-87
2023/03/01 11:20:13;;;;;;;12.13;10.73;;;24.70;64.70;;;;;;6300905;22;20410;-87
2023/03/01 11:22:59;;;;;;;12.00;10.80;;;24.20;62.00;;;;;;6302357;22;20370;-88
2023/03/01 11:25:43;;;;;;;13.40;11.60;;;23.90;58.40;;;;;;6302695;22;20354;-87
2023/03/01 11:28:18;;;;;;;14.90;11.23;;;23.90;59.40;;;;;;6303284;22;20389;-88
2023/03/01 11:31:02;;;;;;;13.67;12.27;;;24.10;59.80;;;;;;6275552;22;20968;-87
2023/03/01 11:33:42;;;;;;;15.10;11.30;;;23.80;58.90;;;;;;6302453;22;20788;-87
2023/03/01 11:36:13;;;;;;;13.23;11.83;;;23.80;58.70;;;;;;6301204;22;20405;-87
2023/03/01 11:38:39;;;;;;;16.03;11.97;;;23.80;58.20;;;;;;6301541;22;20363;-86
2023/03/01 11:41:25;;;;;;;14.80;12.77;;;23.70;57.60;;;;;;6302905;22;20459;-87
2023/03/01 11:44:01;;;;;;;15.03;12.10;;;23.50;57.40;;;;;;6304275;22;20591;-87
2023/03/01 11:46:36;;;;;;;13.20;11.93;;;23.30;57.00;;;;;;6308885;22;20404;-87
2023/03/01 11:49:16;;;;;;;13.47;12.10;;;23.60;58.30;;;;;;6305035;22;20362;-87
2023/03/01 11:52:14;;;;;;;14.10;11.07;;;24.00;60.10;;;;;;6301777;22;20401;-88
2023/03/01 11:55:07;;;;;;;12.23;11.03;;;23.70;57.90;;;;;;6302732;22;20417;-88
2023/03/01 11:57:41;;;;;;;13.67;11.23;;;23.40;57.20;;;;;;6304794;22;20367;-89
2023/03/01 12:00:20;;;;;;;14.97;11.60;;;23.50;57.30;;;;;;6303986;22;20385;-88
2023/03/01 12:02:58;;;;;;;12.07;10.87;;;23.80;59.60;;;;;;6305669;22;20359;-87
2023/03/01 12:05:45;;;;;;;13.13;11.47;;;24.40;62.90;;;;;;6303002;22;20382;-87
2023/03/01 12:08:34;;;;;;;13.50;12.20;;;24.70;63.40;;;;;;6304752;22;20358;-88
2023/03/01 12:11:28;;;;;;;16.30;12.73;;;25.10;65.90;;;;;;6302631;22;20920;-87
2023/03/01 12:14:15;;;;;;;15.83;12.73;;;25.10;65.00;;;;;;6305045;22;20398;-88
2023/03/01 12:16:56;;;;;;;12.70;11.27;;;25.20;64.90;;;;;;6302038;22;20369;-87
2023/03/01 12:19:39;;;;;;;14.70;10.40;;;25.30;65.60;;;;;;6304196;22;20413;-86
2023/03/01 12:22:25;;;;;;;12.40;10.50;;;25.30;65.40;;;;;;6302840;22;20358;-88
2023/03/01 12:25:20;;;;;;;13.47;12.17;;;25.20;64.60;;;;;;6239265;22;20836;-88
2023/03/01 12:27:49;;;;;;;13.10;11.70;;;25.10;63.20;;;;;;6249993;22;20946;-88
2023/03/01 12:30:36;;;;;;;14.00;11.60;;;24.80;61.20;;;;;;6303730;22;20417;-88
2023/03/01 12:33:29;;;;;;;13.13;11.83;;;24.70;61.70;;;;;;6303122;22;20381;-87
2023/03/01 12:36:25;;;;;;;12.27;10.97;;;24.90;61.70;;;;;;6302164;22;20367;-88
2023/03/01 12:39:09;;;;;;;13.00;10.70;;;24.60;59.70;;;;;;6303204;22;20461;-88
2023/03/01 12:41:51;;;;;;;12.30;10.60;;;24.30;58.10;;;;;;6305346;22;20350;-88
2023/03/01 12:44:40;;;;;;;12.40;11.10;;;23.80;55.70;;;;;;6306547;22;20362;-87
2023/03/01 12:47:28;;;;;;;12.80;11.50;;;23.30;53.60;;;;;;6305802;22;20431;-88
2023/03/01 12:49:58;;;;;;;12.40;10.93;;;23.20;52.70;;;;;;6308927;22;20457;-87
2023/03/01 12:52:45;;;;;;;13.07;11.70;;;23.60;54.40;;;;;;6304602;22;20455;-87
2023/03/01 12:55:23;;;;;;;13.20;11.80;;;23.80;55.80;;;;;;6304328;22;20823;-88
2023/03/01 12:58:07;;;;;;;16.83;13.23;;;23.90;56.00;;;;;;6299512;22;20377;-88
2023/03/01 13:00:37;;;;;;;14.90;12.63;;;23.80;55.60;;;;;;6301053;22;20485;-89
2023/03/01 13:03:24;;;;;;;12.37;10.40;;;23.40;54.20;;;;;;6301454;22;20730;-87
2023/03/01 13:05:56;;;;;;;11.40;10.37;;;23.20;52.50;;;;;;6302200;22;20370;-88
2023/03/01 13:08:41;;;;;;;13.93;10.33;;;23.10;52.10;;;;;;6304223;22;20378;-87
2023/03/01 13:11:20;;;;;;;12.83;11.30;;;23.10;52.50;;;;;;6303366;22;20741;-88
2023/03/01 13:13:54;;;;;;;12.77;11.47;;;23.20;53.10;;;;;;6300812;22;21116;-88
2023/03/01 13:16:30;;;;;;;12.77;11.43;;;23.10;52.90;;;;;;6300903;22;20447;-87
2023/03/01 13:19:18;;;;;;;13.47;12.07;;;22.80;51.50;;;;;;6302648;22;20395;-87
2023/03/01 13:21:46;;;;;;;13.47;12.10;;;22.80;51.80;;;;;;6304393;22;20438;-87
2023/03/01 13:24:41;;;;;;;15.20;10.50;;;22.60;51.10;;;;;;6303792;22;20424;-88
2023/03/01 13:27:07;;;;;;;13.43;12.23;;;22.50;50.90;;;;;;6291275;22;20741;-87
2023/03/01 13:29:47;;;;;;;16.10;10.13;;;22.70;52.00;;;;;;6302292;22;20405;-86
2023/03/01 13:32:20;;;;;;;11.13;10.00;;;22.60;51.40;;;;;;6302113;22;20624;-86
2023/03/01 13:34:47;;;;;;;10.73;8.93;;;22.30;50.60;;;;;;6303024;22;20422;-87
2023/03/01 13:37:29;;;;;;;9.83;8.83;;;22.10;49.50;;;;;;6304148;22;20689;-87
2023/03/01 13:39:57;;;;;;;15.37;10.17;;;22.00;49.60;;;;;;6302024;22;20406;-87
2023/03/01 13:42:29;;;;;;;11.50;9.50;;;21.90;50.30;;;;;;6301830;22;20388;-87
2023/03/01 13:44:54;;;;;;;11.43;9.73;;;21.80;48.90;;;;;;6304230;22;20380;-86
2023/03/01 13:47:21;;;;;;;13.83;9.70;;;21.60;49.20;;;;;;6304324;22;20440;-87
2023/03/01 13:50:01;;;;;;;14.07;9.10;;;21.30;47.50;;;;;;6301148;22;20172;-88
2023/03/01 13:52:43;;;;;;;9.27;8.27;;;20.90;45.70;;;;;;6305976;22;20367;-87
2023/03/01 13:55:20;;;;;;;9.23;8.20;;;20.50;44.40;;;;;;6306171;22;20405;-87
2023/03/01 13:57:53;;;;;;;10.90;8.30;;;20.40;44.30;;;;;;6304365;22;20376;-86
2023/03/01 14:00:29;;;;;;;9.30;7.30;;;20.20;43.00;;;;;;6305106;22;20405;-86
2023/03/01 14:03:11;;;;;;;9.70;8.37;;;20.00;43.00;;;;;;6306360;22;20373;-86
2023/03/01 14:05:38;;;;;;;13.87;9.00;;;19.90;42.10;;;;;;6304130;22;20377;-87
2023/03/01 14:08:05;;;;;;;11.80;8.83;;;19.70;41.50;;;;;;6305378;22;20386;-87
2023/03/01 14:10:58;;;;;;;11.63;8.83;;;19.40;40.00;;;;;;6305962;22;20383;-89
2023/03/01 14:13:35;;;;;;;14.87;9.07;;;19.20;40.50;;;;;;6304573;22;20808;-86
2023/03/01 14:16:10;;;;;;;14.03;8.70;;;18.90;39.60;;;;;;6305962;22;20746;-86
2023/03/01 14:18:48;;;;;;;9.40;7.70;;;18.60;38.80;;;;;;6306120;22;20355;-86
2023/03/01 14:21:15;;;;;;;9.33;7.83;;;18.60;38.50;;;;;;6305095;22;20380;-86
2023/03/01 14:23:42;;;;;;;9.13;8.20;;;18.40;37.90;;;;;;6307569;22;20386;-87
2023/03/01 14:26:09;;;;;;;8.77;7.60;;;18.20;37.10;;;;;;6304097;22;20882;-86
2023/03/01 14:28:38;;;;;;;13.43;9.10;;;17.90;36.20;;;;;;6305579;22;20390;-87
2023/03/01 14:31:33;;;;;;;11.43;9.40;;;17.70;35.40;;;;;;6303885;22;20425;-85
2023/03/01 14:33:58;;;;;;;12.37;8.70;;;17.70;37.10;;;;;;6306204;22;20440;-86
2023/03/01 14:36:32;;;;;;;11.33;8.20;;;17.70;36.60;;;;;;6305702;22;20396;-87
2023/03/01 14:39:04;;;;;;;8.43;7.57;;;17.50;35.80;;;;;;6306331;22;20145;-86
2023/03/01 14:41:34;;;;;;;9.83;8.23;;;17.50;36.20;;;;;;6304720;22;20394;-86
2023/03/01 14:44:04;;;;;;;9.90;8.27;;;17.40;36.80;;;;;;6304689;22;20402;-89
2023/03/01 14:46:48;;;;;;;9.70;8.27;;;17.50;36.90;;;;;;6305052;22;20359;-87
2023/03/01 14:49:29;;;;;;;11.13;9.07;;;17.50;37.60;;;;;;6306882;22;20414;-86
2023/03/01 14:52:03;;;;;;;7.67;6.87;;;17.30;43.90;;;;;;6309871;22;20371;-86
2023/03/01 14:54:51;;;;;;;8.63;7.73;;;17.10;36.00;;;;;;6315873;22;20404;-86
2023/03/01 14:57:23;;;;;;;8.30;7.40;;;17.00;36.60;;;;;;6313026;22;20426;-86
2023/03/01 14:59:52;;;;;;;9.77;8.30;;;17.00;36.50;;;;;;6316154;22;20393;-88
2023/03/01 15:02:20;;;;;;;10.33;8.37;;;16.90;37.30;;;;;;6308716;22;20709;-87
2023/03/01 15:04:50;;;;;;;10.33;8.47;;;17.00;37.90;;;;;;6311528;22;20497;-89
2023/03/01 15:07:21;;;;;;;9.50;8.33;;;17.10;39.40;;;;;;6308063;22;20378;-86
2023/03/01 15:09:47;;;;;;;10.27;8.33;;;16.90;39.10;;;;;;6309540;22;20474;-86
2023/03/01 15:12:28;;;;;;;10.33;8.70;;;16.70;37.90;;;;;;6308540;22;20376;-87
2023/03/01 15:14:55;;;;;;;11.30;8.23;;;16.70;38.30;;;;;;6306360;22;20738;-88